Montreal (YUL/CYUL)

Information

Location
Montreal, QB, Canada
Local Time
21:47 / 9:47 pm
GMT Time
01:47 / 1:47 am
Gates
77
No FAA reported delays
METAR CYUL 270100Z 25003KT 30SM FEW100 SCT240 19/07 A2991 RMK AC2CI1 SLP130 DENSITY ALT 700FT
TAF TAF CYUL 262338Z 2700/2724 26007KT P6SM FEW060 FM270100 22007KT P6SM FEW030 BKN070 TEMPO 2702/2707 5SM -SHRA BR SCT015 BKN030 OVC070 PROB30 2703/2707 VRB15G25KT 2SM TSRA BR BKN015 OVC030CB FM270700 22010KT P6SM BKN020 BKN060 FM271500 22007KT P6SM SCT030 SCT100 FM271800 17010KT P6SM BKN040 PROB30 2719/2723 VRB15G25KT 2SM TSRA BR SCT020 BKN040CB RMK NXT FCST BY 270300Z